sensor_id;sensor_type;location;lat;lon;timestamp;P1;durP1;ratioP1;P2;durP2;ratioP2
19998;SDS011;10160;50.926;4.374;2023-07-29T00:00:42;3.63;;;1.27;;
19998;SDS011;10160;50.926;4.374;2023-07-29T00:03:08;3.08;;;1.30;;
19998;SDS011;10160;50.926;4.374;2023-07-29T00:05:34;3.28;;;1.20;;
19998;SDS011;10160;50.926;4.374;2023-07-29T00:08:00;3.38;;;1.08;;
19998;SDS011;10160;50.926;4.374;2023-07-29T00:10:26;2.75;;;1.05;;
19998;SDS011;10160;50.926;4.374;2023-07-29T00:12:52;3.47;;;1.30;;
19998;SDS011;10160;50.926;4.374;2023-07-29T00:15:18;7.30;;;1.17;;
19998;SDS011;10160;50.926;4.374;2023-07-29T00:17:43;5.47;;;1.20;;
19998;SDS011;10160;50.926;4.374;2023-07-29T00:20:09;5.13;;;1.17;;
19998;SDS011;10160;50.926;4.374;2023-07-29T00:22:35;4.15;;;1.15;;
19998;SDS011;10160;50.926;4.374;2023-07-29T00:25:00;4.28;;;1.38;;
19998;SDS011;10160;50.926;4.374;2023-07-29T00:27:26;2.85;;;1.50;;
19998;SDS011;10160;50.926;4.374;2023-07-29T00:29:52;3.20;;;1.50;;
19998;SDS011;10160;50.926;4.374;2023-07-29T00:32:18;3.25;;;1.20;;
19998;SDS011;10160;50.926;4.374;2023-07-29T00:34:43;3.17;;;1.35;;
19998;SDS011;10160;50.926;4.374;2023-07-29T00:37:09;4.43;;;1.30;;
19998;SDS011;10160;50.926;4.374;2023-07-29T00:39:35;3.35;;;1.40;;
19998;SDS011;10160;50.926;4.374;2023-07-29T00:42:02;7.68;;;1.58;;
19998;SDS011;10160;50.926;4.374;2023-07-29T00:44:28;6.38;;;1.55;;
19998;SDS011;10160;50.926;4.374;2023-07-29T00:46:54;6.03;;;1.55;;
19998;SDS011;10160;50.926;4.374;2023-07-29T00:49:20;2.42;;;1.35;;
19998;SDS011;10160;50.926;4.374;2023-07-29T00:51:49;4.78;;;1.38;;
19998;SDS011;10160;50.926;4.374;2023-07-29T00:54:15;4.40;;;1.65;;
19998;SDS011;10160;50.926;4.374;2023-07-29T00:56:44;3.45;;;1.38;;
19998;SDS011;10160;50.926;4.374;2023-07-29T00:59:10;3.45;;;1.40;;
19998;SDS011;10160;50.926;4.374;2023-07-29T01:01:36;3.00;;;1.25;;
19998;SDS011;10160;50.926;4.374;2023-07-29T01:04:02;7.10;;;1.63;;
19998;SDS011;10160;50.926;4.374;2023-07-29T01:06:29;4.82;;;1.60;;
19998;SDS011;10160;50.926;4.374;2023-07-29T01:09:18;3.30;;;1.40;;
19998;SDS011;10160;50.926;4.374;2023-07-29T01:14:47;4.25;;;1.70;;
19998;SDS011;10160;50.926;4.374;2023-07-29T01:17:30;5.22;;;2.13;;
19998;SDS011;10160;50.926;4.374;2023-07-29T01:20:16;5.07;;;1.98;;
19998;SDS011;10160;50.926;4.374;2023-07-29T01:22:45;3.90;;;1.60;;
19998;SDS011;10160;50.926;4.374;2023-07-29T01:25:12;6.47;;;1.50;;
19998;SDS011;10160;50.926;4.374;2023-07-29T01:27:38;4.38;;;1.50;;
19998;SDS011;10160;50.926;4.374;2023-07-29T01:30:04;4.55;;;1.58;;
19998;SDS011;10160;50.926;4.374;2023-07-29T01:32:46;4.07;;;1.58;;
19998;SDS011;10160;50.926;4.374;2023-07-29T01:35:27;5.28;;;1.63;;
19998;SDS011;10160;50.926;4.374;2023-07-29T01:38:05;4.18;;;1.63;;
19998;SDS011;10160;50.926;4.374;2023-07-29T01:40:34;4.40;;;1.67;;
19998;SDS011;10160;50.926;4.374;2023-07-29T01:43:00;5.38;;;1.67;;
19998;SDS011;10160;50.926;4.374;2023-07-29T01:45:27;5.07;;;1.63;;
19998;SDS011;10160;50.926;4.374;2023-07-29T01:47:56;6.57;;;1.50;;
19998;SDS011;10160;50.926;4.374;2023-07-29T01:50:22;3.70;;;1.60;;
19998;SDS011;10160;50.926;4.374;2023-07-29T01:52:48;6.88;;;1.80;;
19998;SDS011;10160;50.926;4.374;2023-07-29T01:55:16;4.30;;;1.52;;
19998;SDS011;10160;50.926;4.374;2023-07-29T01:57:42;4.47;;;1.80;;
19998;SDS011;10160;50.926;4.374;2023-07-29T02:00:09;3.08;;;1.38;;
19998;SDS011;10160;50.926;4.374;2023-07-29T02:02:35;6.28;;;1.30;;
19998;SDS011;10160;50.926;4.374;2023-07-29T02:05:04;7.25;;;1.40;;
19998;SDS011;10160;50.926;4.374;2023-07-29T02:07:30;4.45;;;1.75;;
19998;SDS011;10160;50.926;4.374;2023-07-29T02:09:55;5.25;;;1.77;;
19998;SDS011;10160;50.926;4.374;2023-07-29T02:12:21;4.22;;;1.83;;
19998;SDS011;10160;50.926;4.374;2023-07-29T02:14:47;3.33;;;1.58;;
19998;SDS011;10160;50.926;4.374;2023-07-29T02:17:12;5.35;;;1.58;;
19998;SDS011;10160;50.926;4.374;2023-07-29T02:19:38;3.78;;;1.63;;
19998;SDS011;10160;50.926;4.374;2023-07-29T02:22:03;3.20;;;1.55;;
19998;SDS011;10160;50.926;4.374;2023-07-29T02:24:29;3.65;;;1.50;;
19998;SDS011;10160;50.926;4.374;2023-07-29T02:26:55;2.95;;;1.50;;
19998;SDS011;10160;50.926;4.374;2023-07-29T02:29:20;3.67;;;1.48;;
19998;SDS011;10160;50.926;4.374;2023-07-29T02:31:46;5.95;;;1.80;;
19998;SDS011;10160;50.926;4.374;2023-07-29T02:34:12;8.18;;;2.08;;
19998;SDS011;10160;50.926;4.374;2023-07-29T02:36:38;5.15;;;1.75;;
19998;SDS011;10160;50.926;4.374;2023-07-29T02:39:04;6.28;;;1.65;;
19998;SDS011;10160;50.926;4.374;2023-07-29T02:41:31;3.70;;;1.50;;
19998;SDS011;10160;50.926;4.374;2023-07-29T02:43:56;4.22;;;1.50;;
19998;SDS011;10160;50.926;4.374;2023-07-29T02:46:22;3.78;;;1.50;;
19998;SDS011;10160;50.926;4.374;2023-07-29T02:48:48;6.68;;;1.75;;
19998;SDS011;10160;50.926;4.374;2023-07-29T02:51:14;4.15;;;1.77;;
19998;SDS011;10160;50.926;4.374;2023-07-29T02:53:40;4.45;;;1.80;;
19998;SDS011;10160;50.926;4.374;2023-07-29T02:56:05;4.07;;;1.63;;
19998;SDS011;10160;50.926;4.374;2023-07-29T02:58:34;3.75;;;1.50;;
19998;SDS011;10160;50.926;4.374;2023-07-29T03:01:00;5.18;;;1.48;;
19998;SDS011;10160;50.926;4.374;2023-07-29T03:03:27;5.00;;;1.60;;
19998;SDS011;10160;50.926;4.374;2023-07-29T03:08:45;4.15;;;1.58;;
19998;SDS011;10160;50.926;4.374;2023-07-29T03:11:14;6.50;;;1.98;;
19998;SDS011;10160;50.926;4.374;2023-07-29T03:13:40;5.50;;;1.58;;
19998;SDS011;10160;50.926;4.374;2023-07-29T03:16:07;6.40;;;1.65;;
19998;SDS011;10160;50.926;4.374;2023-07-29T03:18:34;3.10;;;1.70;;
19998;SDS011;10160;50.926;4.374;2023-07-29T03:21:01;4.28;;;1.58;;
19998;SDS011;10160;50.926;4.374;2023-07-29T03:23:28;7.00;;;1.48;;
19998;SDS011;10160;50.926;4.374;2023-07-29T03:25:55;4.28;;;1.63;;
19998;SDS011;10160;50.926;4.374;2023-07-29T03:28:23;4.40;;;1.70;;
19998;SDS011;10160;50.926;4.374;2023-07-29T03:30:53;3.72;;;1.52;;
19998;SDS011;10160;50.926;4.374;2023-07-29T03:33:22;4.97;;;1.83;;
19998;SDS011;10160;50.926;4.374;2023-07-29T03:35:49;5.32;;;2.00;;
19998;SDS011;10160;50.926;4.374;2023-07-29T03:38:14;3.90;;;1.67;;
19998;SDS011;10160;50.926;4.374;2023-07-29T03:40:41;5.22;;;1.90;;
19998;SDS011;10160;50.926;4.374;2023-07-29T03:43:07;4.93;;;2.00;;
19998;SDS011;10160;50.926;4.374;2023-07-29T03:45:33;4.55;;;1.85;;
19998;SDS011;10160;50.926;4.374;2023-07-29T03:48:00;6.80;;;2.00;;
19998;SDS011;10160;50.926;4.374;2023-07-29T03:50:25;6.35;;;2.20;;
19998;SDS011;10160;50.926;4.374;2023-07-29T03:52:52;4.80;;;2.00;;
19998;SDS011;10160;50.926;4.374;2023-07-29T03:55:17;5.97;;;2.30;;
19998;SDS011;10160;50.926;4.374;2023-07-29T03:57:43;6.82;;;2.20;;
19998;SDS011;10160;50.926;4.374;2023-07-29T04:00:09;4.63;;;1.67;;
19998;SDS011;10160;50.926;4.374;2023-07-29T04:02:35;5.95;;;2.10;;
19998;SDS011;10160;50.926;4.374;2023-07-29T04:05:04;7.15;;;2.08;;
19998;SDS011;10160;50.926;4.374;2023-07-29T04:07:33;3.90;;;1.90;;
19998;SDS011;10160;50.926;4.374;2023-07-29T04:09:59;5.22;;;2.13;;
19998;SDS011;10160;50.926;4.374;2023-07-29T04:12:26;5.93;;;2.17;;
19998;SDS011;10160;50.926;4.374;2023-07-29T04:14:51;4.28;;;2.10;;
19998;SDS011;10160;50.926;4.374;2023-07-29T04:17:17;4.10;;;2.03;;
19998;SDS011;10160;50.926;4.374;2023-07-29T04:19:43;4.22;;;1.77;;
19998;SDS011;10160;50.926;4.374;2023-07-29T04:22:08;5.07;;;1.90;;
19998;SDS011;10160;50.926;4.374;2023-07-29T04:24:34;4.82;;;1.90;;
19998;SDS011;10160;50.926;4.374;2023-07-29T04:27:00;5.60;;;2.30;;
19998;SDS011;10160;50.926;4.374;2023-07-29T04:29:25;6.13;;;2.20;;
19998;SDS011;10160;50.926;4.374;2023-07-29T04:31:51;4.55;;;2.03;;
19998;SDS011;10160;50.926;4.374;2023-07-29T04:34:17;5.07;;;1.92;;
19998;SDS011;10160;50.926;4.374;2023-07-29T04:36:44;3.80;;;1.63;;
19998;SDS011;10160;50.926;4.374;2023-07-29T04:39:10;3.88;;;1.80;;
19998;SDS011;10160;50.926;4.374;2023-07-29T04:41:36;8.27;;;1.65;;
19998;SDS011;10160;50.926;4.374;2023-07-29T04:44:01;6.57;;;2.22;;
19998;SDS011;10160;50.926;4.374;2023-07-29T04:46:27;4.50;;;1.70;;
19998;SDS011;10160;50.926;4.374;2023-07-29T04:48:53;6.00;;;2.22;;
19998;SDS011;10160;50.926;4.374;2023-07-29T04:51:18;5.20;;;1.98;;
19998;SDS011;10160;50.926;4.374;2023-07-29T04:53:44;6.47;;;2.10;;
19998;SDS011;10160;50.926;4.374;2023-07-29T04:56:10;4.22;;;1.58;;
19998;SDS011;10160;50.926;4.374;2023-07-29T04:58:36;6.15;;;2.13;;
19998;SDS011;10160;50.926;4.374;2023-07-29T05:01:02;8.70;;;2.40;;
19998;SDS011;10160;50.926;4.374;2023-07-29T05:03:29;6.40;;;2.20;;
19998;SDS011;10160;50.926;4.374;2023-07-29T05:05:54;4.75;;;1.80;;
19998;SDS011;10160;50.926;4.374;2023-07-29T05:08:22;7.68;;;2.25;;
19998;SDS011;10160;50.926;4.374;2023-07-29T05:10:51;5.13;;;2.25;;
19998;SDS011;10160;50.926;4.374;2023-07-29T05:13:17;5.78;;;2.03;;
19998;SDS011;10160;50.926;4.374;2023-07-29T05:15:44;4.78;;;2.00;;
19998;SDS011;10160;50.926;4.374;2023-07-29T05:18:10;5.40;;;2.28;;
19998;SDS011;10160;50.926;4.374;2023-07-29T05:20:36;5.53;;;2.08;;
19998;SDS011;10160;50.926;4.374;2023-07-29T05:23:02;4.50;;;1.90;;
19998;SDS011;10160;50.926;4.374;2023-07-29T05:25:28;4.47;;;1.80;;
19998;SDS011;10160;50.926;4.374;2023-07-29T05:27:54;4.85;;;2.00;;
19998;SDS011;10160;50.926;4.374;2023-07-29T05:30:19;5.03;;;2.10;;
19998;SDS011;10160;50.926;4.374;2023-07-29T05:32:45;5.18;;;2.10;;
19998;SDS011;10160;50.926;4.374;2023-07-29T05:35:11;6.75;;;2.33;;
19998;SDS011;10160;50.926;4.374;2023-07-29T05:37:39;4.35;;;1.90;;
19998;SDS011;10160;50.926;4.374;2023-07-29T05:40:06;4.45;;;2.05;;
19998;SDS011;10160;50.926;4.374;2023-07-29T05:42:33;4.55;;;1.90;;
19998;SDS011;10160;50.926;4.374;2023-07-29T05:44:59;9.15;;;1.50;;
19998;SDS011;10160;50.926;4.374;2023-07-29T05:47:25;3.83;;;1.80;;
19998;SDS011;10160;50.926;4.374;2023-07-29T05:49:52;8.23;;;1.85;;
19998;SDS011;10160;50.926;4.374;2023-07-29T05:52:17;4.20;;;1.75;;
19998;SDS011;10160;50.926;4.374;2023-07-29T05:54:46;6.15;;;2.05;;
19998;SDS011;10160;50.926;4.374;2023-07-29T05:57:12;3.67;;;1.63;;
19998;SDS011;10160;50.926;4.374;2023-07-29T05:59:38;4.03;;;1.63;;
19998;SDS011;10160;50.926;4.374;2023-07-29T06:02:03;4.50;;;1.48;;
19998;SDS011;10160;50.926;4.374;2023-07-29T06:04:30;6.13;;;1.98;;
19998;SDS011;10160;50.926;4.374;2023-07-29T06:06:55;4.95;;;1.88;;
19998;SDS011;10160;50.926;4.374;2023-07-29T06:09:21;5.63;;;1.67;;
19998;SDS011;10160;50.926;4.374;2023-07-29T06:11:47;3.95;;;1.70;;
19998;SDS011;10160;50.926;4.374;2023-07-29T06:14:13;5.10;;;1.30;;
19998;SDS011;10160;50.926;4.374;2023-07-29T06:16:39;5.13;;;1.70;;
19998;SDS011;10160;50.926;4.374;2023-07-29T06:19:04;5.70;;;1.70;;
19998;SDS011;10160;50.926;4.374;2023-07-29T06:21:30;5.07;;;1.70;;
19998;SDS011;10160;50.926;4.374;2023-07-29T06:23:56;4.90;;;1.92;;
19998;SDS011;10160;50.926;4.374;2023-07-29T06:26:21;2.85;;;1.40;;
19998;SDS011;10160;50.926;4.374;2023-07-29T06:28:47;2.97;;;1.27;;
19998;SDS011;10160;50.926;4.374;2023-07-29T06:31:13;3.25;;;1.40;;
19998;SDS011;10160;50.926;4.374;2023-07-29T06:33:39;3.13;;;1.52;;
19998;SDS011;10160;50.926;4.374;2023-07-29T06:36:04;4.30;;;1.38;;
19998;SDS011;10160;50.926;4.374;2023-07-29T06:38:30;3.40;;;1.30;;
19998;SDS011;10160;50.926;4.374;2023-07-29T06:40:56;4.38;;;1.30;;
19998;SDS011;10160;50.926;4.374;2023-07-29T06:43:22;4.82;;;1.00;;
19998;SDS011;10160;50.926;4.374;2023-07-29T06:45:47;2.80;;;1.10;;
19998;SDS011;10160;50.926;4.374;2023-07-29T06:48:13;4.20;;;1.30;;
19998;SDS011;10160;50.926;4.374;2023-07-29T06:50:39;5.57;;;1.00;;
19998;SDS011;10160;50.926;4.374;2023-07-29T06:53:04;2.33;;;1.00;;
19998;SDS011;10160;50.926;4.374;2023-07-29T06:55:31;2.55;;;1.00;;
19998;SDS011;10160;50.926;4.374;2023-07-29T06:57:56;6.20;;;1.00;;
19998;SDS011;10160;50.926;4.374;2023-07-29T07:00:22;3.72;;;1.00;;
19998;SDS011;10160;50.926;4.374;2023-07-29T07:02:48;3.25;;;1.15;;
19998;SDS011;10160;50.926;4.374;2023-07-29T07:05:13;2.40;;;0.90;;
19998;SDS011;10160;50.926;4.374;2023-07-29T07:07:39;2.70;;;0.95;;
19998;SDS011;10160;50.926;4.374;2023-07-29T07:10:05;2.97;;;1.08;;
19998;SDS011;10160;50.926;4.374;2023-07-29T07:12:31;4.35;;;1.42;;
19998;SDS011;10160;50.926;4.374;2023-07-29T07:14:57;3.55;;;1.38;;
19998;SDS011;10160;50.926;4.374;2023-07-29T07:17:22;4.88;;;1.50;;
19998;SDS011;10160;50.926;4.374;2023-07-29T07:19:48;2.25;;;1.00;;
19998;SDS011;10160;50.926;4.374;2023-07-29T07:22:14;3.35;;;1.15;;
19998;SDS011;10160;50.926;4.374;2023-07-29T07:24:41;3.88;;;1.20;;
19998;SDS011;10160;50.926;4.374;2023-07-29T07:27:06;2.97;;;1.23;;
19998;SDS011;10160;50.926;4.374;2023-07-29T07:29:32;5.05;;;1.20;;
19998;SDS011;10160;50.926;4.374;2023-07-29T07:31:58;3.25;;;1.25;;
19998;SDS011;10160;50.926;4.374;2023-07-29T07:34:24;3.60;;;1.17;;
19998;SDS011;10160;50.926;4.374;2023-07-29T07:36:50;2.85;;;1.13;;
19998;SDS011;10160;50.926;4.374;2023-07-29T07:39:15;5.32;;;1.65;;
19998;SDS011;10160;50.926;4.374;2023-07-29T07:41:41;5.43;;;1.15;;
19998;SDS011;10160;50.926;4.374;2023-07-29T07:44:07;2.80;;;1.13;;
19998;SDS011;10160;50.926;4.374;2023-07-29T07:46:33;2.95;;;1.10;;
19998;SDS011;10160;50.926;4.374;2023-07-29T07:48:58;4.10;;;1.25;;
19998;SDS011;10160;50.926;4.374;2023-07-29T07:51:24;3.30;;;1.20;;
19998;SDS011;10160;50.926;4.374;2023-07-29T07:53:50;4.28;;;1.55;;
19998;SDS011;10160;50.926;4.374;2023-07-29T07:56:15;3.58;;;1.45;;
19998;SDS011;10160;50.926;4.374;2023-07-29T07:58:41;2.42;;;1.30;;
19998;SDS011;10160;50.926;4.374;2023-07-29T08:01:07;2.75;;;1.08;;
19998;SDS011;10160;50.926;4.374;2023-07-29T08:03:34;3.35;;;1.50;;
19998;SDS011;10160;50.926;4.374;2023-07-29T08:06:00;4.50;;;1.50;;
19998;SDS011;10160;50.926;4.374;2023-07-29T08:08:26;3.28;;;1.30;;
19998;SDS011;10160;50.926;4.374;2023-07-29T08:10:53;3.03;;;1.00;;
19998;SDS011;10160;50.926;4.374;2023-07-29T08:13:20;2.85;;;1.02;;
19998;SDS011;10160;50.926;4.374;2023-07-29T08:15:47;4.40;;;1.20;;
19998;SDS011;10160;50.926;4.374;2023-07-29T08:18:16;5.80;;;1.27;;
19998;SDS011;10160;50.926;4.374;2023-07-29T08:20:52;2.83;;;1.13;;
19998;SDS011;10160;50.926;4.374;2023-07-29T08:23:27;3.30;;;1.10;;
19998;SDS011;10160;50.926;4.374;2023-07-29T08:25:54;3.10;;;1.10;;
19998;SDS011;10160;50.926;4.374;2023-07-29T08:28:26;3.47;;;1.15;;
19998;SDS011;10160;50.926;4.374;2023-07-29T08:30:52;3.00;;;1.08;;
19998;SDS011;10160;50.926;4.374;2023-07-29T08:33:18;3.08;;;1.20;;
19998;SDS011;10160;50.926;4.374;2023-07-29T08:35:43;4.90;;;1.35;;
19998;SDS011;10160;50.926;4.374;2023-07-29T08:38:09;1.98;;;0.90;;
19998;SDS011;10160;50.926;4.374;2023-07-29T08:40:35;3.92;;;1.23;;
19998;SDS011;10160;50.926;4.374;2023-07-29T08:43:06;4.15;;;1.10;;
19998;SDS011;10160;50.926;4.374;2023-07-29T08:45:36;4.28;;;1.55;;
19998;SDS011;10160;50.926;4.374;2023-07-29T08:48:05;3.85;;;1.10;;
19998;SDS011;10160;50.926;4.374;2023-07-29T08:50:33;4.25;;;1.10;;
19998;SDS011;10160;50.926;4.374;2023-07-29T08:53:03;5.55;;;1.20;;
19998;SDS011;10160;50.926;4.374;2023-07-29T08:55:30;3.58;;;1.00;;
19998;SDS011;10160;50.926;4.374;2023-07-29T08:58:00;8.48;;;1.58;;
19998;SDS011;10160;50.926;4.374;2023-07-29T09:00:26;3.42;;;1.25;;
19998;SDS011;10160;50.926;4.374;2023-07-29T09:02:52;2.88;;;1.27;;
19998;SDS011;10160;50.926;4.374;2023-07-29T09:05:20;6.55;;;1.25;;
19998;SDS011;10160;50.926;4.374;2023-07-29T09:07:46;3.00;;;1.10;;
19998;SDS011;10160;50.926;4.374;2023-07-29T09:10:16;2.00;;;1.00;;
19998;SDS011;10160;50.926;4.374;2023-07-29T09:12:41;3.42;;;1.20;;
19998;SDS011;10160;50.926;4.374;2023-07-29T09:15:07;4.50;;;1.02;;
19998;SDS011;10160;50.926;4.374;2023-07-29T09:17:34;4.75;;;1.50;;
19998;SDS011;10160;50.926;4.374;2023-07-29T09:19:59;4.10;;;1.50;;
19998;SDS011;10160;50.926;4.374;2023-07-29T09:22:26;5.32;;;1.52;;
19998;SDS011;10160;50.926;4.374;2023-07-29T09:24:52;3.38;;;1.25;;
19998;SDS011;10160;50.926;4.374;2023-07-29T09:27:25;3.17;;;1.20;;
19998;SDS011;10160;50.926;4.374;2023-07-29T09:29:54;5.80;;;1.88;;
19998;SDS011;10160;50.926;4.374;2023-07-29T09:32:22;5.43;;;1.15;;
19998;SDS011;10160;50.926;4.374;2023-07-29T09:34:49;3.03;;;1.33;;
19998;SDS011;10160;50.926;4.374;2023-07-29T09:37:24;6.88;;;1.75;;
19998;SDS011;10160;50.926;4.374;2023-07-29T09:39:50;2.85;;;1.33;;
19998;SDS011;10160;50.926;4.374;2023-07-29T09:42:19;4.88;;;1.48;;
19998;SDS011;10160;50.926;4.374;2023-07-29T09:44:49;3.33;;;1.35;;
19998;SDS011;10160;50.926;4.374;2023-07-29T09:47:22;6.63;;;1.35;;
19998;SDS011;10160;50.926;4.374;2023-07-29T09:49:48;3.08;;;1.27;;
19998;SDS011;10160;50.926;4.374;2023-07-29T09:52:22;4.65;;;1.30;;
19998;SDS011;10160;50.926;4.374;2023-07-29T09:54:48;4.20;;;1.25;;
19998;SDS011;10160;50.926;4.374;2023-07-29T09:57:14;6.55;;;1.50;;
19998;SDS011;10160;50.926;4.374;2023-07-29T09:59:43;5.72;;;1.58;;
19998;SDS011;10160;50.926;4.374;2023-07-29T10:02:16;2.88;;;1.10;;
19998;SDS011;10160;50.926;4.374;2023-07-29T10:04:42;7.00;;;1.55;;
19998;SDS011;10160;50.926;4.374;2023-07-29T10:07:11;3.22;;;1.60;;
19998;SDS011;10160;50.926;4.374;2023-07-29T10:09:39;3.67;;;1.17;;
19998;SDS011;10160;50.926;4.374;2023-07-29T10:12:06;5.18;;;1.80;;
19998;SDS011;10160;50.926;4.374;2023-07-29T10:14:33;3.17;;;1.52;;
19998;SDS011;10160;50.926;4.374;2023-07-29T10:16:59;3.35;;;1.52;;
19998;SDS011;10160;50.926;4.374;2023-07-29T10:19:25;4.03;;;1.45;;
19998;SDS011;10160;50.926;4.374;2023-07-29T10:21:52;3.65;;;1.60;;
19998;SDS011;10160;50.926;4.374;2023-07-29T10:24:24;5.07;;;1.15;;
19998;SDS011;10160;50.926;4.374;2023-07-29T10:26:56;5.15;;;1.30;;
19998;SDS011;10160;50.926;4.374;2023-07-29T10:29:28;5.07;;;1.55;;
19998;SDS011;10160;50.926;4.374;2023-07-29T10:32:01;2.53;;;1.25;;
19998;SDS011;10160;50.926;4.374;2023-07-29T10:34:29;4.43;;;1.20;;
19998;SDS011;10160;50.926;4.374;2023-07-29T10:36:56;3.53;;;1.30;;
19998;SDS011;10160;50.926;4.374;2023-07-29T10:39:37;3.45;;;1.30;;
19998;SDS011;10160;50.926;4.374;2023-07-29T10:42:05;4.43;;;1.42;;
19998;SDS011;10160;50.926;4.374;2023-07-29T10:47:14;2.85;;;1.27;;
19998;SDS011;10160;50.926;4.374;2023-07-29T10:49:45;3.22;;;1.33;;
19998;SDS011;10160;50.926;4.374;2023-07-29T10:52:16;2.38;;;0.90;;
19998;SDS011;10160;50.926;4.374;2023-07-29T10:54:52;3.03;;;1.30;;
19998;SDS011;10160;50.926;4.374;2023-07-29T10:59:57;4.38;;;1.10;;
19998;SDS011;10160;50.926;4.374;2023-07-29T11:02:31;5.60;;;1.48;;
19998;SDS011;10160;50.926;4.374;2023-07-29T11:05:08;3.72;;;1.63;;
19998;SDS011;10160;50.926;4.374;2023-07-29T11:07:48;5.50;;;1.60;;
19998;SDS011;10160;50.926;4.374;2023-07-29T11:10:14;5.50;;;1.88;;
19998;SDS011;10160;50.926;4.374;2023-07-29T11:12:43;6.32;;;1.85;;
19998;SDS011;10160;50.926;4.374;2023-07-29T11:15:28;8.93;;;2.60;;
19998;SDS011;10160;50.926;4.374;2023-07-29T11:17:57;8.07;;;3.15;;
19998;SDS011;10160;50.926;4.374;2023-07-29T11:20:28;5.20;;;2.33;;
19998;SDS011;10160;50.926;4.374;2023-07-29T11:22:55;4.65;;;2.50;;
19998;SDS011;10160;50.926;4.374;2023-07-29T11:25:23;6.57;;;2.83;;
19998;SDS011;10160;50.926;4.374;2023-07-29T11:27:54;6.20;;;2.92;;
19998;SDS011;10160;50.926;4.374;2023-07-29T11:30:22;4.10;;;2.00;;
19998;SDS011;10160;50.926;4.374;2023-07-29T11:32:51;8.30;;;2.63;;
19998;SDS011;10160;50.926;4.374;2023-07-29T11:35:20;4.13;;;1.73;;
19998;SDS011;10160;50.926;4.374;2023-07-29T11:37:46;5.22;;;1.70;;
19998;SDS011;10160;50.926;4.374;2023-07-29T11:40:17;4.45;;;1.73;;
19998;SDS011;10160;50.926;4.374;2023-07-29T11:42:45;4.15;;;1.45;;
19998;SDS011;10160;50.926;4.374;2023-07-29T11:45:12;5.43;;;1.77;;
19998;SDS011;10160;50.926;4.374;2023-07-29T11:47:38;4.10;;;1.80;;
19998;SDS011;10160;50.926;4.374;2023-07-29T11:50:05;4.07;;;1.48;;
19998;SDS011;10160;50.926;4.374;2023-07-29T11:52:38;4.35;;;1.50;;
19998;SDS011;10160;50.926;4.374;2023-07-29T11:55:05;4.57;;;1.70;;
19998;SDS011;10160;50.926;4.374;2023-07-29T11:57:38;6.43;;;2.10;;
19998;SDS011;10160;50.926;4.374;2023-07-29T12:00:08;4.50;;;1.80;;
19998;SDS011;10160;50.926;4.374;2023-07-29T12:02:37;7.65;;;2.42;;
19998;SDS011;10160;50.926;4.374;2023-07-29T12:05:09;3.40;;;2.10;;
19998;SDS011;10160;50.926;4.374;2023-07-29T12:07:35;4.88;;;2.03;;
19998;SDS011;10160;50.926;4.374;2023-07-29T12:10:03;3.70;;;1.80;;
19998;SDS011;10160;50.926;4.374;2023-07-29T12:12:29;5.95;;;1.88;;
19998;SDS011;10160;50.926;4.374;2023-07-29T12:14:55;3.72;;;1.75;;
19998;SDS011;10160;50.926;4.374;2023-07-29T12:17:21;4.82;;;1.70;;
19998;SDS011;10160;50.926;4.374;2023-07-29T12:19:47;5.13;;;1.55;;
19998;SDS011;10160;50.926;4.374;2023-07-29T12:22:17;4.00;;;1.60;;
19998;SDS011;10160;50.926;4.374;2023-07-29T12:24:44;5.07;;;1.70;;
19998;SDS011;10160;50.926;4.374;2023-07-29T12:27:13;4.38;;;1.40;;
19998;SDS011;10160;50.926;4.374;2023-07-29T12:29:41;3.65;;;1.65;;
19998;SDS011;10160;50.926;4.374;2023-07-29T12:32:08;4.40;;;1.80;;
19998;SDS011;10160;50.926;4.374;2023-07-29T12:34:34;3.13;;;1.60;;
19998;SDS011;10160;50.926;4.374;2023-07-29T12:37:02;8.40;;;2.00;;
19998;SDS011;10160;50.926;4.374;2023-07-29T12:39:29;4.00;;;2.30;;
19998;SDS011;10160;50.926;4.374;2023-07-29T12:41:58;6.70;;;2.05;;
19998;SDS011;10160;50.926;4.374;2023-07-29T12:44:25;7.13;;;2.00;;
19998;SDS011;10160;50.926;4.374;2023-07-29T12:47:11;4.75;;;1.85;;
19998;SDS011;10160;50.926;4.374;2023-07-29T12:49:37;4.32;;;1.92;;
19998;SDS011;10160;50.926;4.374;2023-07-29T12:52:03;6.28;;;2.22;;
19998;SDS011;10160;50.926;4.374;2023-07-29T12:54:28;4.93;;;2.10;;
19998;SDS011;10160;50.926;4.374;2023-07-29T12:56:54;5.95;;;2.38;;
19998;SDS011;10160;50.926;4.374;2023-07-29T12:59:20;7.63;;;1.90;;
19998;SDS011;10160;50.926;4.374;2023-07-29T13:01:45;4.65;;;1.90;;
19998;SDS011;10160;50.926;4.374;2023-07-29T13:04:11;4.25;;;2.08;;
19998;SDS011;10160;50.926;4.374;2023-07-29T13:06:40;6.93;;;1.95;;
19998;SDS011;10160;50.926;4.374;2023-07-29T13:09:05;5.05;;;2.10;;
19998;SDS011;10160;50.926;4.374;2023-07-29T13:11:31;3.22;;;1.65;;
19998;SDS011;10160;50.926;4.374;2023-07-29T13:13:58;4.93;;;1.70;;
19998;SDS011;10160;50.926;4.374;2023-07-29T13:16:25;4.40;;;1.90;;
19998;SDS011;10160;50.926;4.374;2023-07-29T13:18:51;2.92;;;1.80;;
19998;SDS011;10160;50.926;4.374;2023-07-29T13:21:17;3.13;;;1.60;;
19998;SDS011;10160;50.926;4.374;2023-07-29T13:23:51;3.78;;;1.80;;
19998;SDS011;10160;50.926;4.374;2023-07-29T13:26:17;3.47;;;1.65;;
19998;SDS011;10160;50.926;4.374;2023-07-29T13:28:43;4.35;;;1.30;;
19998;SDS011;10160;50.926;4.374;2023-07-29T13:31:08;3.20;;;1.50;;
19998;SDS011;10160;50.926;4.374;2023-07-29T13:33:34;3.28;;;1.67;;
19998;SDS011;10160;50.926;4.374;2023-07-29T13:36:00;2.85;;;1.40;;
19998;SDS011;10160;50.926;4.374;2023-07-29T13:38:28;3.42;;;1.80;;
19998;SDS011;10160;50.926;4.374;2023-07-29T13:40:54;2.95;;;1.70;;
19998;SDS011;10160;50.926;4.374;2023-07-29T13:43:20;3.38;;;1.77;;
19998;SDS011;10160;50.926;4.374;2023-07-29T13:45:46;3.28;;;1.63;;
19998;SDS011;10160;50.926;4.374;2023-07-29T13:48:14;3.63;;;1.77;;
19998;SDS011;10160;50.926;4.374;2023-07-29T13:50:40;3.03;;;1.50;;
19998;SDS011;10160;50.926;4.374;2023-07-29T13:53:06;4.30;;;1.55;;
19998;SDS011;10160;50.926;4.374;2023-07-29T13:55:32;3.03;;;1.40;;
19998;SDS011;10160;50.926;4.374;2023-07-29T13:57:57;3.53;;;1.30;;
19998;SDS011;10160;50.926;4.374;2023-07-29T14:00:23;3.75;;;1.15;;
19998;SDS011;10160;50.926;4.374;2023-07-29T14:02:49;2.92;;;1.40;;
19998;SDS011;10160;50.926;4.374;2023-07-29T14:05:18;3.20;;;1.27;;
19998;SDS011;10160;50.926;4.374;2023-07-29T14:07:44;1.85;;;1.05;;
19998;SDS011;10160;50.926;4.374;2023-07-29T14:10:09;4.13;;;1.30;;
19998;SDS011;10160;50.926;4.374;2023-07-29T14:12:35;2.50;;;1.08;;
19998;SDS011;10160;50.926;4.374;2023-07-29T14:15:01;2.83;;;1.30;;
19998;SDS011;10160;50.926;4.374;2023-07-29T14:17:26;2.50;;;1.20;;
19998;SDS011;10160;50.926;4.374;2023-07-29T14:19:52;2.60;;;1.30;;
19998;SDS011;10160;50.926;4.374;2023-07-29T14:22:18;1.92;;;1.10;;
19998;SDS011;10160;50.926;4.374;2023-07-29T14:24:43;5.47;;;1.30;;
19998;SDS011;10160;50.926;4.374;2023-07-29T14:27:09;2.90;;;1.20;;
19998;SDS011;10160;50.926;4.374;2023-07-29T14:29:35;9.07;;;2.03;;
19998;SDS011;10160;50.926;4.374;2023-07-29T14:32:03;2.72;;;1.30;;
19998;SDS011;10160;50.926;4.374;2023-07-29T14:34:29;2.65;;;1.23;;
19998;SDS011;10160;50.926;4.374;2023-07-29T14:36:55;3.08;;;1.20;;
19998;SDS011;10160;50.926;4.374;2023-07-29T14:39:20;4.07;;;1.52;;
19998;SDS011;10160;50.926;4.374;2023-07-29T14:41:46;1.80;;;1.02;;
19998;SDS011;10160;50.926;4.374;2023-07-29T14:44:12;2.65;;;1.15;;
19998;SDS011;10160;50.926;4.374;2023-07-29T14:46:38;2.20;;;1.08;;
19998;SDS011;10160;50.926;4.374;2023-07-29T14:49:03;1.88;;;0.93;;
19998;SDS011;10160;50.926;4.374;2023-07-29T14:51:29;3.53;;;1.42;;
19998;SDS011;10160;50.926;4.374;2023-07-29T14:53:55;2.72;;;1.10;;
19998;SDS011;10160;50.926;4.374;2023-07-29T14:56:20;3.60;;;1.05;;
19998;SDS011;10160;50.926;4.374;2023-07-29T14:58:46;2.33;;;1.20;;